Decoded Metar for SAWE (RIO GRANDE in ARGENTINA) (IATA:RGA) | Meteo·Mobile Aviation Weather
aviador You're here:

SAWE Decoded Metar

RIO GRANDE in ARGENTINA
Report Time2019-01-20 11:00:00
UTC Time2019-01-20 11:08:43
Flight Rules vfr VFR
Wind290° at 11 kt
W.Decomp.*RWY 25: 9.7 kt HW 5.2 kt RCW
W.Rank290° ranks 2
Current wind is below 290° avg. (16.4)
Visibility9999 m
Phenomena:N/A
Clouds:N/A
Expected CloudBase > 2,400 ft AGL from Temp-Dew spread
CeilingNone
Temp09°C (ISA -6)
Dew Point03°C (66% RH)
AAT3.5°C
QNH0998 hPa
Density Alt-13 ft
Elevation72 ft
Report Wrong Elevation
Raw Report
METAR SAWE 201100Z 29011KT CAVOK 09/03 Q0998=

Extra information for SAWE:More info

Metar Taf Metar & Taf Last 4 Metars F.Rules Stats Wind Profile Meteogram Temp Stats Airport Information Weather charts Add Link Nearby VenuesMetar ALERT Operation Metar Decoded Social comments